Flight Track Log - Related Links

Times and Time Zones

All times are in EDT time to prevent confusion due to time zone crossing. See the SWA158 flight status page for this flight to view local times or setup timezone preferences in your user account.

Time Position Orientation Groundspeed Altitude Reporting Facility
EDT Latitude Longitude Course Direction KTS MPH feet Rate Location/Type
Mon 02:39:18 PM 41.7667 -87.7833 346° North 154 177 2,100  Level Chicago TRACON
Mon 02:40:18 PM 41.8167 -87.8000 346° North 251 289 4,300 2,450 Climbing Chicago TRACON
Mon 02:41:18 PM 41.8167 -87.7000 90° East 275 316 7,000 3,027 Climbing Chicago TRACON
Mon 02:42:09 PM 41.8064 -87.6081 98° East 284 327 9,900 3,398 Climbing Chicago Center
Mon 02:43:11 PM 41.7981 -87.4883 95° East 312 359 13,400 2,758 Climbing Chicago Center
Mon 02:44:13 PM 41.7878 -87.3611 96° East 336 387 15,600 2,468 Climbing Chicago Center
Mon 02:45:15 PM 41.7742 -87.2164 97° East 376 433 18,500 2,710 Climbing Chicago Center
Mon 02:46:17 PM 41.7619 -87.0675 96° East 397 457 21,200 2,468 Climbing Chicago Center
Mon 02:47:19 PM 41.7631 -86.9094 89° East 422 486 23,600 2,371 Climbing Chicago Center
Mon 02:48:21 PM 41.7644 -86.7153 89° East 435 501 26,100 2,226 Climbing Chicago Center
Mon 02:49:23 PM 41.7658 -86.5425 89° East 448 516 28,200 1,887 Climbing Chicago Center
Mon 02:50:25 PM 41.7672 -86.3692 89° East 461 531 30,000 1,645 Climbing Chicago Center
Mon 02:51:27 PM 41.7886 -86.1969 80° East 470 541 31,600 1,440 Climbing Chicago Center
Mon 02:52:30 PM 41.8183 -86.0264 77° East 471 542 33,000 672 Climbing Chicago Center
Mon 02:53:32 PM 41.8483 -85.8519 77° East 475 547 33,000  Level Chicago Center
Mon 02:54:34 PM 41.8786 -85.6764 77° East 478 550 33,000  Level Chicago Center
Mon 02:55:36 PM 41.9139 -85.5033 75° East 478 550 33,000 774 Level Chicago Center
Mon 02:56:38 PM 41.9986 -85.3233 58° Northeast 472 543 34,600 1,355 Climbing Chicago Center
Mon 02:57:40 PM 42.0558 -85.1889 60° Northeast 474 545 35,800 677 Climbing Chicago Center
Mon 02:58:42 PM 42.1358 -85.0067 59° Northeast 474 545 36,000 105 Climbing Chicago Center
Mon 02:59:34 PM 42.1608 -84.8806 75° East 464 534 36,000  Level Cleveland Center
Mon 03:00:34 PM 42.1700 -84.6906 86° East 464 534 36,000 750 Level Cleveland Center
Mon 03:01:34 PM 42.1931 -84.5072 80° East 465 535 37,500 1,500 Climbing Cleveland Center
Mon 03:02:34 PM 42.2114 -84.3317 82° East 465 535 39,000 750 Climbing Cleveland Center
Mon 03:03:34 PM 42.2272 -84.1614 83° East 465 535 39,000  Level Cleveland Center
Mon 03:04:34 PM 42.2428 -83.9911 83° East 459 528 39,000  Level Cleveland Center
Mon 03:05:34 PM 42.2581 -83.8236 83° East 459 528 39,000  Level Cleveland Center
Mon 03:06:34 PM 42.2756 -83.6478 82° East 459 528 39,000  Level Cleveland Center
Mon 03:07:34 PM 42.2925 -83.4772 82° East 465 535 39,000  Level Cleveland Center
Mon 03:08:34 PM 42.3050 -83.3067 84° East 465 535 39,000  Level Cleveland Center
Mon 03:09:34 PM 42.3192 -83.1469 83° East 460 529 39,000  Level Cleveland Center
Mon 03:10:34 PM 42.3331 -82.9764 84° East 460 529 39,000  Level Cleveland Center
Mon 03:11:34 PM 42.3492 -82.8000 83° East 460 529 39,000  Level Cleveland Center
Mon 03:12:34 PM 42.3628 -82.6261 84° East 460 529 39,000  Level Cleveland Center
Mon 03:13:34 PM 42.3761 -82.4522 84° East 460 529 39,000  Level Cleveland Center
Mon 03:14:34 PM 42.3914 -82.2783 83° East 460 529 39,000  Level Cleveland Center
Mon 03:15:34 PM 42.4042 -82.1072 84° East 460 529 39,000  Level Cleveland Center
Mon 03:16:34 PM 42.4211 -81.9333 82° East 460 529 39,000  Level Cleveland Center
Mon 03:17:34 PM 42.4311 -81.7647 85° East 460 529 39,000  Level Cleveland Center
Mon 03:18:34 PM 42.4456 -81.5736 84° East 460 529 39,000  Level Cleveland Center
Mon 03:19:34 PM 42.4594 -81.4050 84° East 460 529 39,000  Level Cleveland Center
Mon 03:20:34 PM 42.4708 -81.2392 85° East 454 522 39,000  Level Cleveland Center
Mon 03:21:34 PM 42.4822 -81.0675 85° East 454 522 39,000  Level Cleveland Center
Mon 03:22:34 PM 42.4931 -80.9042 85° East 449 517 39,000  Level Cleveland Center
Mon 03:23:34 PM 42.5039 -80.7297 85° East 449 517 39,000  Level Cleveland Center
Mon 03:24:33 PM 42.5144 -80.5633 85° East 443 510 39,000  Level Cleveland Center
Mon 03:25:33 PM 42.5225 -80.3972 86° East 443 510 39,000  Level Cleveland Center
Mon 03:26:34 PM 42.5347 -80.2506 83° East 438 504 39,000  Level Cleveland Center
Mon 03:27:33 PM 42.5447 -80.0817 85° East 443 510 39,000  Level Cleveland Center
Mon 03:28:34 PM 42.5583 -79.8983 84° East 443 510 39,000  Level Cleveland Center
Mon 03:29:34 PM 42.5697 -79.7319 85° East 443 510 39,000  Level Cleveland Center
Mon 03:30:34 PM 42.5767 -79.5597 87° East 443 510 39,000  Level Cleveland Center
Mon 03:31:34 PM 42.5875 -79.3903 85° East 443 510 39,000  Level Cleveland Center
Mon 03:32:34 PM 42.5961 -79.2208 86° East 443 510 39,000  Level Cleveland Center
Mon 03:33:34 PM 42.6042 -79.0486 86° East 443 510 39,000  Level Cleveland Center
Mon 03:34:34 PM 42.6122 -78.8764 86° East 448 516 39,000  Level Cleveland Center
Mon 03:35:34 PM 42.6200 -78.7069 86° East 448 516 39,000  Level Cleveland Center
Mon 03:36:34 PM 42.6275 -78.5372 87° East 448 516 39,000  Level Cleveland Center
Mon 03:37:34 PM 42.6369 -78.3675 86° East 448 516 39,000  Level Cleveland Center
Mon 03:38:34 PM 42.6439 -78.1981 87° East 448 516 39,000  Level Cleveland Center
Mon 03:39:34 PM 42.6508 -78.0283 87° East 442 509 39,000  Level Cleveland Center
Mon 03:40:34 PM 42.6575 -77.8644 87° East 442 509 39,000  Level Cleveland Center
Mon 03:41:34 PM 42.6622 -77.7117 88° East 442 509 39,000  Level Cleveland Center
Mon 03:43:49 PM 42.6767 -77.3269 87° East 440 506 39,000  Level Boston Center
Mon 03:44:49 PM 42.6819 -77.1578 88° East 445 512 39,000  Level Boston Center
Mon 03:45:49 PM 42.6867 -76.9856 88° East 445 512 39,000  Level Boston Center
Mon 03:46:49 PM 42.6936 -76.8108 87° East 452 520 39,000  Level Boston Center
Mon 03:47:49 PM 42.7000 -76.6389 87° East 457 526 39,000  Level Boston Center
Mon 03:48:49 PM 42.7042 -76.4667 88° East 457 526 39,000  Level Boston Center
Mon 03:49:49 PM 42.7083 -76.2917 88° East 457 526 39,000  Level Boston Center
Mon 03:50:49 PM 42.7167 -76.1028 86° East 457 526 39,000  Level Boston Center
Mon 03:51:49 PM 42.7178 -75.9306 89° East 457 526 39,000  Level Boston Center
Mon 03:52:49 PM 42.7231 -75.7583 88° East 452 520 39,000  Level Boston Center
Mon 03:53:49 PM 42.7258 -75.5889 89° East 452 520 39,000 -650 Level Boston Center
Mon 03:54:49 PM 42.7261 -75.4136 90° East 458 527 37,700 -1,850 Descending Boston Center
Mon 03:55:49 PM 42.7328 -75.2442 87° East 458 527 35,300 -2,250 Descending Boston Center
Mon 03:56:49 PM 42.7325 -75.0775 90° East 453 521 33,200 -2,050 Descending Boston Center
Mon 03:57:49 PM 42.7361 -74.9108 88° East 447 514 31,200 -1,750 Descending Boston Center
Mon 03:58:49 PM 42.7367 -74.7864 90° East 433 498 29,700 -1,100 Descending Boston Center
Mon 03:59:49 PM 42.7406 -74.6000 88° East 417 480 29,000 -350 Descending Boston Center
Mon 04:00:49 PM 42.7433 -74.4389 89° East 412 474 29,000 -300 Level Boston Center
Mon 04:01:49 PM 42.7461 -74.2778 89° East 419 482 28,400 -800 Descending Boston Center
Mon 04:02:49 PM 42.7444 -74.1222 91° East 419 482 27,400 -1,000 Descending Boston Center
Mon 04:03:49 PM 42.7425 -73.9667 91° East 419 482 26,400 -1,000 Descending Boston Center
Mon 04:04:49 PM 42.7464 -73.8169 88° East 414 476 25,400 -1,000 Descending Boston Center
Mon 04:05:49 PM 42.7544 -73.6644 86° East 403 464 24,400 -1,000 Descending Boston Center
Mon 04:06:49 PM 42.7581 -73.5147 88° East 398 458 23,400 -1,000 Descending Boston Center
Mon 04:07:49 PM 42.7656 -73.3706 86° East 393 452 22,400 -1,000 Descending Boston Center
Mon 04:08:49 PM 42.7686 -73.2292 88° East 382 440 21,400 -1,050 Descending Boston Center
Mon 04:09:49 PM 42.7736 -73.0878 87° East 377 434 20,300 -1,000 Descending Boston Center
Mon 04:10:49 PM 42.7786 -72.9578 87° East 371 427 19,400 -650 Descending Boston Center
Mon 04:11:49 PM 42.7811 -72.8192 89° East 361 415 19,000 -500 Descending Boston Center
Mon 04:12:49 PM 42.7858 -72.6833 87° East 354 407 18,400 -950 Descending Boston Center
Mon 04:13:49 PM 42.7881 -72.5589 89° East 343 395 17,100 -1,350 Descending Boston Center
Mon 04:14:49 PM 42.7900 -72.4514 89° East 331 381 15,700 -1,500 Descending Boston Center
Mon 04:15:49 PM 42.7942 -72.3297 87° East 325 374 14,100 -1,700 Descending Boston Center
Mon 04:16:49 PM 42.8003 -72.2081 86° East 320 368 12,300 -1,750 Descending Boston Center
Mon 04:17:49 PM 42.8103 -72.0833 84° East 309 356 10,600 -1,250 Descending Boston Center
Mon 04:18:49 PM 42.8183 -71.9817 84° East 309 356 9,800 -1,100 Descending Boston Center
Mon 04:19:49 PM 42.8283 -71.8653 83° East 289 333 8,400 -1,250 Descending Boston Center
Mon 04:20:49 PM 42.8717 -71.7969 49° Northeast 256 295 7,300 -1,100 Descending Boston Center
Mon 04:21:49 PM 42.9381 -71.7339 35° Northeast 251 289 6,200 -1,045 Descending Boston Center
Mon 04:23:01 PM 42.9833 -71.6483 54° Northeast 251 289 5,000 -1,091 Descending Boston Center
Mon 04:24:01 PM 43.0181 -71.5569 63° Northeast 246 283 3,800 -1,100 Descending Boston Center
Mon 04:25:01 PM 43.0258 -71.4914 81° East 217 250 2,800 -1,250 Descending Boston Center
Mon 04:26:01 PM 42.9881 -71.4667 154° Southeast 118 136 1,300 -1,100 Descending Boston Center
Mon 04:27:01 PM 42.9567 -71.4472 156° South 129 148 600 -450 Descending Boston Center
Mon 04:28:01 PM 42.9253 -71.4250 153° Southeast 129 148 400 4,200 Descending Boston Center
Mon 04:29:01 PM 42.8939 -71.4058 156° South 129 148 9,000 4,300 Climbing Boston Center
Mon 04:30:01 PM 42.8622 -71.3836 153° Southeast 129 148 9,000  Level Boston Center
Mon 04:32:00 PM 42.9167 -71.4333 316° Northwest  Level FlightAware Approximate
Mon 04:39:00 PM 42.9328 -71.4358 316° Northwest  Level Estimated
Mon 04:40:00 PM 42.9328 -71.4358 316° Northwest  Level Estimated
Mon 04:41:00 PM 42.9328 -71.4358 316° Northwest  Level Estimated
Mon 04:42:00 PM 42.9328 -71.4358 316° Northwest  Level Estimated
Mon 04:43:00 PM 42.9328 -71.4358 316° Northwest  Level Estimated
Mon 04:44:00 PM 42.9328 -71.4358 316° Northwest  Level Estimated

Login

Don't have an account? Register now (free) for customized features, flight alerts, and more!